Terminal Aerodrome Forecast
Issued by NWS Sterling, VA

Current Version | Previous Version | Text Only | Print | Product List | Glossary Off
Versions: 1 2 3 4 5 6 7 8 9 10 11 12 13 14 15 16 17 18 19 20 21 22 23 24 25 26

995
FTUS41 KLWX 302340
TAFIAD
TAF
KIAD 302340Z 0100/0206 05006KT 3SM SHRA OVC015
     FM010300 24010KT 4SM -SHRA OVC015
     FM010500 26009KT 4SM -SHRA BKN030
     FM010700 27009KT P6SM BKN060
     FM010800 28010KT P6SM SCT070
     FM020300 27006KT P6SM SKC=

USA.gov is the U.S. government's official web portal to all federal, state and local government web resources and services.